createdAt,value
2024-02-02T00:00:33.402Z,7.43
2024-02-02T00:02:59.862Z,6.50
2024-02-02T00:05:26.222Z,8.20
2024-02-02T00:07:52.558Z,6.97
2024-02-02T00:10:18.970Z,8.52
2024-02-02T00:12:45.411Z,9.43
2024-02-02T00:15:11.882Z,6.68
2024-02-02T00:17:38.267Z,8.82
2024-02-02T00:20:05.065Z,8.43
2024-02-02T00:22:31.483Z,7.57
2024-02-02T00:24:57.829Z,4.38
2024-02-02T00:27:24.242Z,11.70
2024-02-02T00:29:50.614Z,9.73
2024-02-02T00:32:17.038Z,8.13
2024-02-02T00:34:43.574Z,8.70
2024-02-02T00:37:10.135Z,8.45
2024-02-02T00:39:39.287Z,8.13
2024-02-02T00:42:05.732Z,7.80
2024-02-02T00:44:32.147Z,5.53
2024-02-02T00:46:58.512Z,7.63
2024-02-02T00:49:24.955Z,10.32
2024-02-02T00:51:51.655Z,7.43
2024-02-02T00:54:18.265Z,7.07
2024-02-02T00:56:44.660Z,8.77
2024-02-02T00:59:11.104Z,8.50
2024-02-02T01:01:38.056Z,13.73
2024-02-02T01:04:04.609Z,8.80
2024-02-02T01:06:31.134Z,6.65
2024-02-02T01:08:57.580Z,7.63
2024-02-02T01:11:24.190Z,10.73
2024-02-02T01:13:50.582Z,5.22
2024-02-02T01:16:16.987Z,6.72
2024-02-02T01:18:43.603Z,6.63
2024-02-02T01:21:10.131Z,7.18
2024-02-02T01:23:36.566Z,6.50
2024-02-02T01:26:02.942Z,7.57
2024-02-02T01:28:29.405Z,7.18
2024-02-02T01:30:55.735Z,9.93
2024-02-02T01:33:22.192Z,6.18
2024-02-02T01:35:48.782Z,10.32
2024-02-02T01:38:15.230Z,6.70
2024-02-02T01:40:41.612Z,6.18
2024-02-02T01:43:07.934Z,8.77
2024-02-02T01:45:34.401Z,6.70
2024-02-02T01:48:00.888Z,8.07
2024-02-02T01:50:27.330Z,5.50
2024-02-02T01:52:53.822Z,7.60
2024-02-02T01:55:20.407Z,5.05
2024-02-02T01:57:47.328Z,8.57
2024-02-02T02:00:14.158Z,6.30
2024-02-02T02:02:40.620Z,7.47
2024-02-02T02:05:07.623Z,7.00
2024-02-02T02:07:34.114Z,8.30
2024-02-02T02:10:00.637Z,7.43
2024-02-02T02:12:27.143Z,6.75
2024-02-02T02:14:53.734Z,6.00
2024-02-02T02:17:20.123Z,6.88
2024-02-02T02:19:50.213Z,10.02
2024-02-02T02:22:16.612Z,5.57
2024-02-02T02:24:42.996Z,6.85
2024-02-02T02:27:09.709Z,5.35
2024-02-02T02:29:36.172Z,5.95
2024-02-02T02:32:02.724Z,7.65
2024-02-02T02:34:29.299Z,9.55
2024-02-02T02:36:55.940Z,9.45
2024-02-02T02:39:22.736Z,7.15
2024-02-02T02:41:49.136Z,11.00
2024-02-02T02:44:15.579Z,5.93
2024-02-02T02:46:42.265Z,10.73
2024-02-02T02:49:08.803Z,12.05
2024-02-02T02:51:35.296Z,9.13
2024-02-02T02:54:01.724Z,4.95
2024-02-02T02:56:28.114Z,9.07
2024-02-02T02:58:54.513Z,6.57
2024-02-02T03:01:21.109Z,7.38
2024-02-02T03:03:47.511Z,7.63
2024-02-02T03:06:14.020Z,6.63
2024-02-02T03:08:40.498Z,7.55
2024-02-02T03:11:06.842Z,9.63
2024-02-02T03:13:33.177Z,5.05
2024-02-02T03:15:59.505Z,8.80
2024-02-02T03:18:25.989Z,10.40
2024-02-02T03:20:52.442Z,13.35
2024-02-02T03:23:18.905Z,9.43
2024-02-02T03:25:45.240Z,7.05
2024-02-02T03:28:11.662Z,10.90
2024-02-02T03:30:38.087Z,7.45
2024-02-02T03:33:04.770Z,9.73
2024-02-02T03:35:31.173Z,11.68
2024-02-02T03:37:57.540Z,8.00
2024-02-02T03:40:23.880Z,10.38
2024-02-02T03:42:50.208Z,9.48
2024-02-02T03:45:16.632Z,11.32
2024-02-02T03:47:43.041Z,9.98
2024-02-02T03:50:09.848Z,11.05
2024-02-02T03:52:36.213Z,8.70
2024-02-02T03:55:02.668Z,7.43
2024-02-02T03:57:29.246Z,8.75
2024-02-02T03:59:55.695Z,8.00
2024-02-02T04:02:22.152Z,8.20
2024-02-02T04:04:48.567Z,7.95
2024-02-02T04:07:14.942Z,11.65
2024-02-02T04:09:41.398Z,9.80
2024-02-02T04:12:07.900Z,12.55
2024-02-02T04:14:34.465Z,9.32
2024-02-02T04:17:00.833Z,9.77
2024-02-02T04:19:27.329Z,8.23
2024-02-02T04:21:53.689Z,9.07
2024-02-02T04:24:20.079Z,10.25
2024-02-02T04:26:46.468Z,9.73
2024-02-02T04:29:12.971Z,10.55
2024-02-02T04:31:39.346Z,7.75
2024-02-02T04:34:05.839Z,9.25
2024-02-02T04:36:32.361Z,11.32
2024-02-02T04:38:58.828Z,10.13
2024-02-02T04:41:26.084Z,9.98
2024-02-02T04:43:52.690Z,8.95
2024-02-02T04:46:19.083Z,8.13
2024-02-02T04:48:45.668Z,8.88
2024-02-02T04:51:12.256Z,9.10
2024-02-02T04:53:38.632Z,10.80
2024-02-02T04:56:05.207Z,10.38
2024-02-02T04:58:31.578Z,9.73
2024-02-02T05:00:57.964Z,8.90
2024-02-02T05:03:24.521Z,6.75
2024-02-02T05:05:50.858Z,10.23
2024-02-02T05:08:17.294Z,9.85
2024-02-02T05:10:43.690Z,12.90
2024-02-02T05:13:10.088Z,12.43
2024-02-02T05:15:36.537Z,9.73
2024-02-02T05:18:03.092Z,11.30
2024-02-02T05:20:29.564Z,10.20
2024-02-02T05:22:55.929Z,11.05
2024-02-02T05:25:22.339Z,10.48
2024-02-02T05:27:48.832Z,10.18
2024-02-02T05:30:15.571Z,8.48
2024-02-02T05:32:42.219Z,9.20
2024-02-02T05:35:08.920Z,9.65
2024-02-02T05:37:35.422Z,16.67
2024-02-02T05:40:01.905Z,9.73
2024-02-02T05:42:28.664Z,12.23
2024-02-02T05:44:55.183Z,15.52
2024-02-02T05:47:21.649Z,19.13
2024-02-02T05:49:48.120Z,16.08
2024-02-02T05:52:14.542Z,13.38
2024-02-02T05:54:40.998Z,11.18
2024-02-02T05:57:07.459Z,13.35
2024-02-02T05:59:33.891Z,14.57
2024-02-02T06:02:00.480Z,15.75
2024-02-02T06:04:26.907Z,13.27
2024-02-02T06:06:53.457Z,16.63
2024-02-02T06:09:19.918Z,11.57
2024-02-02T06:11:46.256Z,11.10
2024-02-02T06:14:12.741Z,12.23
2024-02-02T06:16:39.078Z,11.00
2024-02-02T06:19:05.524Z,12.45
2024-02-02T06:21:32.077Z,10.02
2024-02-02T06:23:58.762Z,13.35
2024-02-02T06:26:25.188Z,7.70
2024-02-02T06:28:51.519Z,12.95
2024-02-02T06:31:17.926Z,9.43
2024-02-02T06:33:44.352Z,11.00
2024-02-02T06:36:10.864Z,12.32
2024-02-02T06:38:37.347Z,10.63
2024-02-02T06:41:03.766Z,12.23
2024-02-02T06:43:30.157Z,12.32
2024-02-02T06:45:56.804Z,11.68
2024-02-02T06:48:23.390Z,11.85
2024-02-02T06:50:49.817Z,12.18
2024-02-02T06:53:16.217Z,10.90
2024-02-02T06:55:43.336Z,10.15
2024-02-02T06:58:38.820Z,9.80
2024-02-02T07:01:05.721Z,11.57
2024-02-02T07:03:33.140Z,9.05
2024-02-02T07:06:00.307Z,10.82
2024-02-02T07:08:27.174Z,8.90
2024-02-02T07:11:05.983Z,9.95
2024-02-02T07:13:46.149Z,12.02
2024-02-02T07:16:27.058Z,14.00
2024-02-02T07:18:53.779Z,13.63
2024-02-02T07:21:20.387Z,13.00
2024-02-02T07:23:49.257Z,13.88
2024-02-02T07:26:32.986Z,14.30
2024-02-02T07:29:04.394Z,10.23
2024-02-02T07:31:46.053Z,14.90
2024-02-02T07:34:40.002Z,13.50
2024-02-02T07:37:10.400Z,13.15
2024-02-02T07:39:37.012Z,11.43
2024-02-02T07:44:53.793Z,13.00
2024-02-02T07:47:20.125Z,13.32
2024-02-02T07:49:46.532Z,13.65
2024-02-02T07:52:12.884Z,10.57
2024-02-02T07:54:39.284Z,9.05
2024-02-02T07:57:05.681Z,13.27
2024-02-02T07:59:32.079Z,10.77
2024-02-02T08:12:45.724Z,8.40
2024-02-02T08:17:54.192Z,9.57
2024-02-02T08:23:01.721Z,8.27
2024-02-02T08:25:30.295Z,14.57
2024-02-02T08:27:57.274Z,14.40
2024-02-02T08:30:23.738Z,10.50
2024-02-02T08:44:27.917Z,5.82
2024-02-02T08:46:54.263Z,7.45
2024-02-02T08:49:41.784Z,9.88
2024-02-02T08:52:13.073Z,6.10
2024-02-02T08:54:46.711Z,5.20
2024-02-02T08:57:30.683Z,9.02
2024-02-02T08:59:58.355Z,8.88
2024-02-02T09:02:52.844Z,6.90
2024-02-02T09:05:21.259Z,6.93
2024-02-02T09:07:54.055Z,5.95
2024-02-02T09:10:40.334Z,9.45
2024-02-02T09:13:06.694Z,11.73
2024-02-02T09:15:35.927Z,6.30
2024-02-02T09:18:02.882Z,10.70
2024-02-02T09:25:46.435Z,5.97
2024-02-02T09:28:25.253Z,9.10
2024-02-02T09:30:58.317Z,8.65
2024-02-02T09:33:47.867Z,7.07
2024-02-02T09:36:15.155Z,9.98
2024-02-02T09:38:53.712Z,9.98
2024-02-02T09:42:05.870Z,8.63
2024-02-02T09:44:46.073Z,9.18
2024-02-02T09:47:37.452Z,7.85
2024-02-02T09:50:16.816Z,8.35
2024-02-02T09:53:25.041Z,8.18
2024-02-02T09:56:05.954Z,8.57
2024-02-02T09:59:11.018Z,9.15
2024-02-02T10:01:37.335Z,7.13
2024-02-02T10:04:22.564Z,11.80
2024-02-02T10:07:23.311Z,8.27
2024-02-02T10:10:07.180Z,13.18
2024-02-02T10:13:21.420Z,8.90
2024-02-02T10:15:50.739Z,9.50
2024-02-02T10:18:36.111Z,11.45
2024-02-02T10:21:24.120Z,8.75
2024-02-02T10:24:11.622Z,8.00
2024-02-02T10:27:18.119Z,10.25
2024-02-02T10:30:18.564Z,10.90
2024-02-02T10:33:16.004Z,8.55
2024-02-02T10:35:48.445Z,8.35
2024-02-02T10:38:33.767Z,10.43
2024-02-02T10:41:19.355Z,9.07
2024-02-02T10:43:51.625Z,9.25
2024-02-02T10:46:43.673Z,7.35
2024-02-02T10:49:44.874Z,7.75
2024-02-02T10:52:40.805Z,8.90
2024-02-02T10:55:22.224Z,8.13
2024-02-02T10:58:24.272Z,7.38
2024-02-02T11:06:41.755Z,9.10
2024-02-02T11:09:11.151Z,10.90
2024-02-02T11:11:44.797Z,7.63
2024-02-02T11:14:13.783Z,9.27
2024-02-02T11:16:58.902Z,7.78
2024-02-02T11:19:46.230Z,10.68
2024-02-02T11:22:19.501Z,7.57
2024-02-02T11:24:51.782Z,9.20
2024-02-02T11:27:30.998Z,7.90
2024-02-02T11:30:06.193Z,7.75
2024-02-02T11:33:07.594Z,7.75
2024-02-02T11:35:56.697Z,7.97
2024-02-02T11:38:41.565Z,9.20
2024-02-02T11:41:15.293Z,6.80
2024-02-02T11:46:11.862Z,9.50
2024-02-02T11:48:43.223Z,9.55
2024-02-02T11:51:10.790Z,7.88
2024-02-02T11:54:02.267Z,6.53
2024-02-02T11:56:34.053Z,7.18
2024-02-02T11:59:09.300Z,6.85
2024-02-02T12:02:13.178Z,5.88
2024-02-02T12:04:48.496Z,5.88
2024-02-02T12:07:31.953Z,4.90
2024-02-02T12:10:02.830Z,8.18
2024-02-02T12:12:34.841Z,5.88
2024-02-02T12:15:01.359Z,8.82
2024-02-02T12:17:28.665Z,5.07
2024-02-02T12:19:55.364Z,6.80
2024-02-02T12:22:21.813Z,4.43
2024-02-02T12:24:48.235Z,6.55
2024-02-02T12:27:15.634Z,5.25
2024-02-02T12:29:42.169Z,5.00
2024-02-02T12:32:11.975Z,5.05
2024-02-02T12:34:38.755Z,6.25
2024-02-02T12:37:05.494Z,7.53
2024-02-02T12:39:32.111Z,5.72
2024-02-02T12:41:59.311Z,4.60
2024-02-02T12:44:25.788Z,4.60
2024-02-02T12:46:52.121Z,5.03
2024-02-02T12:49:18.667Z,6.40
2024-02-02T12:51:45.220Z,4.68
2024-02-02T12:54:12.283Z,4.22
2024-02-02T12:56:38.952Z,5.32
2024-02-02T12:59:06.683Z,5.85
2024-02-02T13:01:33.520Z,3.95
2024-02-02T13:03:59.988Z,5.15
2024-02-02T13:06:26.810Z,4.68
2024-02-02T13:08:53.297Z,4.10
2024-02-02T13:11:20.981Z,5.05
2024-02-02T13:13:47.339Z,4.70
2024-02-02T13:16:23.832Z,3.50
2024-02-02T13:18:50.277Z,3.47
2024-02-02T13:21:27.099Z,4.75
2024-02-02T13:23:57.779Z,4.63
2024-02-02T13:26:39.694Z,5.00
2024-02-02T13:29:06.366Z,3.17
2024-02-02T13:31:32.997Z,3.33
2024-02-02T13:34:00.294Z,3.85
2024-02-02T13:36:27.243Z,2.70
2024-02-02T13:39:00.764Z,3.50
2024-02-02T13:41:28.415Z,3.20
2024-02-02T13:46:29.409Z,2.38
2024-02-02T13:48:55.924Z,3.45
2024-02-02T13:54:10.850Z,3.42
2024-02-02T13:56:37.295Z,2.95
2024-02-02T13:59:03.648Z,3.63
2024-02-02T14:01:30.006Z,4.00
2024-02-02T14:03:56.578Z,3.03
2024-02-02T14:06:23.403Z,4.10
2024-02-02T14:08:51.174Z,4.78
2024-02-02T14:11:25.230Z,2.85
2024-02-02T14:13:52.723Z,4.40
2024-02-02T14:18:46.940Z,4.13
2024-02-02T14:21:14.029Z,4.10
2024-02-02T14:23:40.376Z,3.67
2024-02-02T14:26:09.921Z,3.22
2024-02-02T14:28:36.266Z,5.07
2024-02-02T14:31:02.667Z,4.38
2024-02-02T14:33:29.223Z,3.72
2024-02-02T14:35:55.621Z,3.70
2024-02-02T14:38:22.044Z,4.45
2024-02-02T14:40:48.371Z,2.65
2024-02-02T14:43:15.281Z,4.10
2024-02-02T14:45:41.721Z,4.72
2024-02-02T14:48:08.856Z,4.07
2024-02-02T14:50:35.285Z,4.60
2024-02-02T14:53:01.869Z,4.22
2024-02-02T14:55:29.175Z,4.13
2024-02-02T14:57:57.011Z,2.53
2024-02-02T15:00:23.848Z,4.93
2024-02-02T15:02:50.215Z,3.70
2024-02-02T15:05:16.838Z,3.40
2024-02-02T15:07:43.316Z,4.18
2024-02-02T15:10:11.153Z,5.13
2024-02-02T15:12:37.530Z,4.18
2024-02-02T15:15:04.270Z,4.80
2024-02-02T15:17:30.781Z,5.15
2024-02-02T15:19:57.194Z,3.60
2024-02-02T15:22:23.601Z,3.78
2024-02-02T15:24:49.974Z,3.53
2024-02-02T15:27:16.410Z,4.35
2024-02-02T15:29:43.192Z,2.70
2024-02-02T15:32:09.541Z,3.85
2024-02-02T15:34:36.055Z,3.55
2024-02-02T15:37:02.675Z,3.60
2024-02-02T15:39:37.280Z,4.05
2024-02-02T15:42:05.034Z,3.95
2024-02-02T15:44:31.399Z,3.75
2024-02-02T15:46:57.739Z,3.95
2024-02-02T15:49:24.239Z,4.97
2024-02-02T15:51:50.667Z,3.10
2024-02-02T15:54:17.222Z,3.58
2024-02-02T15:56:43.588Z,3.22
2024-02-02T15:59:11.023Z,3.42
2024-02-02T16:01:37.922Z,4.45
2024-02-02T16:04:04.468Z,3.00
2024-02-02T16:06:31.365Z,4.55
2024-02-02T16:08:57.701Z,4.20
2024-02-02T16:11:24.096Z,6.03
2024-02-02T16:13:50.435Z,3.40
2024-02-02T16:16:16.773Z,3.30
2024-02-02T16:18:43.315Z,4.80
2024-02-02T16:21:09.757Z,3.38
2024-02-02T16:23:36.128Z,4.35
2024-02-02T16:26:02.571Z,3.42
2024-02-02T16:28:29.151Z,3.38
2024-02-02T16:30:55.547Z,4.53
2024-02-02T16:33:22.201Z,3.15
2024-02-02T16:35:48.915Z,3.00
2024-02-02T16:38:16.485Z,2.30
2024-02-02T16:43:09.400Z,2.83
2024-02-02T16:45:35.908Z,3.17
2024-02-02T16:48:02.301Z,3.88
2024-02-02T16:50:28.661Z,3.33
2024-02-02T16:52:55.019Z,3.45
2024-02-02T16:55:21.385Z,2.90
2024-02-02T16:57:47.965Z,3.78
2024-02-02T17:00:14.686Z,5.97
2024-02-02T17:02:41.023Z,3.50
2024-02-02T17:05:07.728Z,3.05
2024-02-02T17:07:34.187Z,3.58
2024-02-02T17:10:00.791Z,3.17
2024-02-02T17:12:27.189Z,2.22
2024-02-02T17:14:53.556Z,3.13
2024-02-02T17:17:19.966Z,3.95
2024-02-02T17:19:46.380Z,2.67
2024-02-02T17:22:12.809Z,2.17
2024-02-02T17:24:40.612Z,3.33
2024-02-02T17:27:07.012Z,3.22
2024-02-02T17:29:33.502Z,2.60
2024-02-02T17:31:59.852Z,3.08
2024-02-02T17:34:26.437Z,1.80
2024-02-02T17:36:52.950Z,3.08
2024-02-02T17:39:19.482Z,2.35
2024-02-02T17:41:45.841Z,1.90
2024-02-02T17:44:12.169Z,4.88
2024-02-02T17:46:38.544Z,2.67
2024-02-02T17:49:04.954Z,3.80
2024-02-02T17:51:31.906Z,2.65
2024-02-02T17:53:58.274Z,3.22
2024-02-02T17:56:24.652Z,2.50
2024-02-02T17:58:51.067Z,2.55
2024-02-02T18:01:17.435Z,2.63
2024-02-02T18:03:43.921Z,2.85
2024-02-02T18:06:10.328Z,2.42
2024-02-02T18:08:37.156Z,3.40
2024-02-02T18:11:03.638Z,2.38
2024-02-02T18:13:31.025Z,2.20
2024-02-02T18:15:57.468Z,2.97
2024-02-02T18:18:23.956Z,2.40
2024-02-02T18:20:50.387Z,2.97
2024-02-02T18:23:16.777Z,2.08
2024-02-02T18:25:43.158Z,2.97
2024-02-02T18:28:09.620Z,2.45
2024-02-02T18:30:36.119Z,3.10
2024-02-02T18:33:02.600Z,1.95
2024-02-02T18:35:29.048Z,2.58
2024-02-02T18:37:55.438Z,2.17
2024-02-02T18:40:21.782Z,2.20
2024-02-02T18:42:48.310Z,2.50
2024-02-02T18:45:14.860Z,2.63
2024-02-02T18:47:41.302Z,1.73
2024-02-02T18:50:08.147Z,2.33
2024-02-02T18:52:34.551Z,2.70
2024-02-02T18:55:00.902Z,3.05
2024-02-02T18:57:27.250Z,2.35
2024-02-02T18:59:53.639Z,3.00
2024-02-02T19:02:20.067Z,2.15
2024-02-02T19:04:46.498Z,1.98
2024-02-02T19:07:13.040Z,4.68
2024-02-02T19:09:39.565Z,2.00
2024-02-02T19:12:06.263Z,2.30
2024-02-02T19:14:32.683Z,3.25
2024-02-02T19:17:00.221Z,2.60
2024-02-02T19:19:26.683Z,4.63
2024-02-02T19:21:53.239Z,2.58
2024-02-02T19:24:19.720Z,2.88
2024-02-02T19:26:46.132Z,3.42
2024-02-02T19:29:12.627Z,4.07
2024-02-02T19:31:39.086Z,3.10
2024-02-02T19:34:06.411Z,2.67
2024-02-02T19:36:33.008Z,2.70
2024-02-02T19:39:00.513Z,3.53
2024-02-02T19:41:31.806Z,2.75
2024-02-02T19:46:36.408Z,3.10
2024-02-02T19:49:03.408Z,3.58
2024-02-02T19:51:30.291Z,1.98
2024-02-02T19:53:56.809Z,2.17
2024-02-02T19:56:23.573Z,2.38
2024-02-02T19:58:50.622Z,2.88
2024-02-02T20:01:21.388Z,2.05
2024-02-02T20:03:49.138Z,2.25
2024-02-02T20:08:43.973Z,3.35
2024-02-02T20:11:18.639Z,2.30
2024-02-02T20:13:46.063Z,1.77
2024-02-02T20:16:17.311Z,5.00
2024-02-02T20:18:44.625Z,2.20
2024-02-02T20:21:15.459Z,1.95
2024-02-02T20:23:42.051Z,2.13
2024-02-02T20:26:08.445Z,2.70
2024-02-02T20:28:34.837Z,4.43
2024-02-02T20:33:43.335Z,2.60
2024-02-02T20:36:10.701Z,2.53
2024-02-02T20:38:37.656Z,2.67
2024-02-02T20:59:50.710Z,2.45
2024-02-02T21:02:17.107Z,2.42
2024-02-02T21:04:43.524Z,3.33
2024-02-02T21:07:10.292Z,3.10
2024-02-02T21:09:39.902Z,3.08
2024-02-02T21:20:14.848Z,2.53
2024-02-02T21:36:10.708Z,2.88
2024-02-02T21:38:37.085Z,3.15
2024-02-02T21:41:03.510Z,2.45
2024-02-02T21:43:29.855Z,2.90
2024-02-02T21:45:56.346Z,4.13
2024-02-02T21:48:23.172Z,2.75
2024-02-02T21:50:49.609Z,2.78
2024-02-02T21:53:16.002Z,4.15
2024-02-02T21:55:42.712Z,2.95
2024-02-02T21:58:09.077Z,2.75
2024-02-02T22:00:35.990Z,4.35
2024-02-02T22:03:03.540Z,3.95
2024-02-02T22:05:29.951Z,5.25
2024-02-02T22:07:56.411Z,3.17
2024-02-02T22:10:22.783Z,3.17
2024-02-02T22:12:49.192Z,3.60
2024-02-02T22:15:15.756Z,3.60
2024-02-02T22:17:42.182Z,3.75
2024-02-02T22:20:09.221Z,3.95
2024-02-02T22:22:35.603Z,4.22
2024-02-02T22:25:01.924Z,5.35
2024-02-02T22:27:31.351Z,3.65
2024-02-02T22:30:00.457Z,3.95
2024-02-02T22:32:26.885Z,5.40
2024-02-02T22:34:53.308Z,5.00
2024-02-02T22:37:19.713Z,4.30
2024-02-02T22:39:46.111Z,4.63
2024-02-02T22:42:12.611Z,4.22
2024-02-02T22:44:38.989Z,3.53
2024-02-02T22:47:05.609Z,4.60
2024-02-02T22:49:32.068Z,5.80
2024-02-02T22:51:58.677Z,4.13
2024-02-02T22:54:25.058Z,4.88
2024-02-02T22:56:51.441Z,4.53
2024-02-02T22:59:17.824Z,4.07
2024-02-02T23:01:44.196Z,5.43
2024-02-02T23:04:10.728Z,3.70
2024-02-02T23:06:37.320Z,5.05
2024-02-02T23:09:04.196Z,5.28
2024-02-02T23:11:30.567Z,5.38
2024-02-02T23:13:56.974Z,5.10
2024-02-02T23:16:23.570Z,4.38
2024-02-02T23:18:50.211Z,5.38
2024-02-02T23:21:16.797Z,5.20
2024-02-02T23:23:43.327Z,5.75
2024-02-02T23:26:13.074Z,6.18
2024-02-02T23:28:39.710Z,5.70
2024-02-02T23:31:06.245Z,6.13
2024-02-02T23:33:32.665Z,4.90
2024-02-02T23:35:59.180Z,6.93
2024-02-02T23:38:25.589Z,5.38
2024-02-02T23:40:51.922Z,5.85
2024-02-02T23:43:18.317Z,5.57
2024-02-02T23:45:44.772Z,6.45
2024-02-02T23:48:11.318Z,6.30
2024-02-02T23:50:37.784Z,6.13
2024-02-02T23:53:04.280Z,6.47
2024-02-02T23:55:30.696Z,7.57
2024-02-02T23:57:57.026Z,5.93
